sensor_id;sensor_type;location;lat;lon;timestamp;temperature;humidity
39045;DHT22;52192;52.002;5.956;2023-06-19T00:01:29;24.50;53.90
39045;DHT22;52192;52.002;5.956;2023-06-19T00:03:55;24.50;54.10
39045;DHT22;52192;52.002;5.956;2023-06-19T00:06:21;24.40;54.30
39045;DHT22;52192;52.002;5.956;2023-06-19T00:08:46;24.40;54.60
39045;DHT22;52192;52.002;5.956;2023-06-19T00:11:12;24.40;54.70
39045;DHT22;52192;52.002;5.956;2023-06-19T00:13:38;24.40;54.90
39045;DHT22;52192;52.002;5.956;2023-06-19T00:16:05;24.40;55.00
39045;DHT22;52192;52.002;5.956;2023-06-19T00:18:30;24.40;55.20
39045;DHT22;52192;52.002;5.956;2023-06-19T00:21:06;24.30;55.20
39045;DHT22;52192;52.002;5.956;2023-06-19T00:23:32;24.30;55.30
39045;DHT22;52192;52.002;5.956;2023-06-19T00:25:58;24.30;55.30
39045;DHT22;52192;52.002;5.956;2023-06-19T00:28:29;24.30;55.20
39045;DHT22;52192;52.002;5.956;2023-06-19T00:30:55;24.30;54.90
39045;DHT22;52192;52.002;5.956;2023-06-19T00:33:21;24.30;54.90
39045;DHT22;52192;52.002;5.956;2023-06-19T00:35:49;24.30;55.00
39045;DHT22;52192;52.002;5.956;2023-06-19T00:38:15;24.30;54.80
39045;DHT22;52192;52.002;5.956;2023-06-19T00:40:40;24.30;54.90
39045;DHT22;52192;52.002;5.956;2023-06-19T00:43:06;24.40;54.90
39045;DHT22;52192;52.002;5.956;2023-06-19T00:45:32;24.30;54.80
39045;DHT22;52192;52.002;5.956;2023-06-19T00:47:59;24.40;54.90
39045;DHT22;52192;52.002;5.956;2023-06-19T00:50:25;24.40;54.80
39045;DHT22;52192;52.002;5.956;2023-06-19T00:52:53;24.40;54.70
39045;DHT22;52192;52.002;5.956;2023-06-19T00:55:19;24.40;55.00
39045;DHT22;52192;52.002;5.956;2023-06-19T00:57:45;24.50;55.10
39045;DHT22;52192;52.002;5.956;2023-06-19T01:00:11;24.50;55.30
39045;DHT22;52192;52.002;5.956;2023-06-19T01:02:38;24.40;55.40
39045;DHT22;52192;52.002;5.956;2023-06-19T01:05:04;24.50;55.40
39045;DHT22;52192;52.002;5.956;2023-06-19T01:10:08;24.50;55.40
39045;DHT22;52192;52.002;5.956;2023-06-19T01:12:45;24.50;55.20
39045;DHT22;52192;52.002;5.956;2023-06-19T01:15:16;24.50;55.20
39045;DHT22;52192;52.002;5.956;2023-06-19T01:17:44;24.50;55.40
39045;DHT22;52192;52.002;5.956;2023-06-19T01:20:11;24.50;55.50
39045;DHT22;52192;52.002;5.956;2023-06-19T01:22:37;24.50;55.30
39045;DHT22;52192;52.002;5.956;2023-06-19T01:25:03;24.50;55.40
39045;DHT22;52192;52.002;5.956;2023-06-19T01:27:31;24.50;55.30
39045;DHT22;52192;52.002;5.956;2023-06-19T01:29:58;24.60;55.30
39045;DHT22;52192;52.002;5.956;2023-06-19T01:35:13;24.50;55.20
39045;DHT22;52192;52.002;5.956;2023-06-19T01:37:40;24.50;55.20
39045;DHT22;52192;52.002;5.956;2023-06-19T01:40:08;24.50;55.20
39045;DHT22;52192;52.002;5.956;2023-06-19T01:42:37;24.50;55.20
39045;DHT22;52192;52.002;5.956;2023-06-19T01:45:04;24.50;55.20
39045;DHT22;52192;52.002;5.956;2023-06-19T01:47:30;24.50;55.20
39045;DHT22;52192;52.002;5.956;2023-06-19T01:49:56;24.50;55.20
39045;DHT22;52192;52.002;5.956;2023-06-19T01:52:23;24.40;55.20
39045;DHT22;52192;52.002;5.956;2023-06-19T01:54:50;24.40;55.10
39045;DHT22;52192;52.002;5.956;2023-06-19T01:57:16;24.40;55.20
39045;DHT22;52192;52.002;5.956;2023-06-19T01:59:41;24.30;55.30
39045;DHT22;52192;52.002;5.956;2023-06-19T02:02:07;24.30;55.50
39045;DHT22;52192;52.002;5.956;2023-06-19T02:04:33;24.30;55.60
39045;DHT22;52192;52.002;5.956;2023-06-19T02:06:59;24.20;55.60
39045;DHT22;52192;52.002;5.956;2023-06-19T02:09:25;24.20;55.70
39045;DHT22;52192;52.002;5.956;2023-06-19T02:11:50;24.20;55.90
39045;DHT22;52192;52.002;5.956;2023-06-19T02:14:16;24.10;56.10
39045;DHT22;52192;52.002;5.956;2023-06-19T02:16:42;24.10;56.30
39045;DHT22;52192;52.002;5.956;2023-06-19T02:19:12;24.00;56.20
39045;DHT22;52192;52.002;5.956;2023-06-19T02:21:38;24.00;56.40
39045;DHT22;52192;52.002;5.956;2023-06-19T02:24:04;24.00;56.60
39045;DHT22;52192;52.002;5.956;2023-06-19T02:26:30;24.00;56.70
39045;DHT22;52192;52.002;5.956;2023-06-19T02:28:56;23.90;56.80
39045;DHT22;52192;52.002;5.956;2023-06-19T02:31:22;23.90;57.10
39045;DHT22;52192;52.002;5.956;2023-06-19T02:33:48;23.90;57.70
39045;DHT22;52192;52.002;5.956;2023-06-19T02:36:14;23.70;58.00
39045;DHT22;52192;52.002;5.956;2023-06-19T02:38:46;23.70;58.40
39045;DHT22;52192;52.002;5.956;2023-06-19T02:41:12;23.60;58.70
39045;DHT22;52192;52.002;5.956;2023-06-19T02:43:39;23.50;59.20
39045;DHT22;52192;52.002;5.956;2023-06-19T02:46:06;23.50;59.50
39045;DHT22;52192;52.002;5.956;2023-06-19T02:48:31;23.40;59.70
39045;DHT22;52192;52.002;5.956;2023-06-19T02:50:57;23.30;59.70
39045;DHT22;52192;52.002;5.956;2023-06-19T02:53:23;23.30;60.40
39045;DHT22;52192;52.002;5.956;2023-06-19T02:55:48;23.20;60.60
39045;DHT22;52192;52.002;5.956;2023-06-19T02:58:14;23.20;60.40
39045;DHT22;52192;52.002;5.956;2023-06-19T03:00:40;23.10;60.70
39045;DHT22;52192;52.002;5.956;2023-06-19T03:03:05;23.10;60.70
39045;DHT22;52192;52.002;5.956;2023-06-19T03:05:31;23.10;60.80
39045;DHT22;52192;52.002;5.956;2023-06-19T03:07:57;23.10;61.30
39045;DHT22;52192;52.002;5.956;2023-06-19T03:10:22;23.10;61.50
39045;DHT22;52192;52.002;5.956;2023-06-19T03:12:48;23.00;61.90
39045;DHT22;52192;52.002;5.956;2023-06-19T03:15:14;23.00;62.10
39045;DHT22;52192;52.002;5.956;2023-06-19T03:17:39;22.90;62.50
39045;DHT22;52192;52.002;5.956;2023-06-19T03:20:06;22.90;62.90
39045;DHT22;52192;52.002;5.956;2023-06-19T03:22:31;22.80;63.20
39045;DHT22;52192;52.002;5.956;2023-06-19T03:24:57;22.80;63.30
39045;DHT22;52192;52.002;5.956;2023-06-19T03:27:23;22.80;63.90
39045;DHT22;52192;52.002;5.956;2023-06-19T03:29:52;22.70;64.10
39045;DHT22;52192;52.002;5.956;2023-06-19T03:32:18;22.70;64.20
39045;DHT22;52192;52.002;5.956;2023-06-19T03:34:45;22.60;64.30
39045;DHT22;52192;52.002;5.956;2023-06-19T03:37:11;22.70;64.50
39045;DHT22;52192;52.002;5.956;2023-06-19T03:39:37;22.60;64.60
39045;DHT22;52192;52.002;5.956;2023-06-19T03:42:03;22.60;64.60
39045;DHT22;52192;52.002;5.956;2023-06-19T03:44:29;22.60;64.60
39045;DHT22;52192;52.002;5.956;2023-06-19T03:46:55;22.60;64.80
39045;DHT22;52192;52.002;5.956;2023-06-19T03:49:20;22.50;64.80
39045;DHT22;52192;52.002;5.956;2023-06-19T03:51:46;22.60;64.80
39045;DHT22;52192;52.002;5.956;2023-06-19T03:54:12;22.60;65.10
39045;DHT22;52192;52.002;5.956;2023-06-19T03:56:38;22.60;65.10
39045;DHT22;52192;52.002;5.956;2023-06-19T03:59:03;22.60;65.10
39045;DHT22;52192;52.002;5.956;2023-06-19T04:01:29;22.60;65.10
39045;DHT22;52192;52.002;5.956;2023-06-19T04:03:55;22.70;65.00
39045;DHT22;52192;52.002;5.956;2023-06-19T04:06:20;22.70;65.10
39045;DHT22;52192;52.002;5.956;2023-06-19T04:08:46;22.70;65.00
39045;DHT22;52192;52.002;5.956;2023-06-19T04:11:12;22.70;65.00
39045;DHT22;52192;52.002;5.956;2023-06-19T04:13:37;22.70;65.00
39045;DHT22;52192;52.002;5.956;2023-06-19T04:16:03;22.70;65.60
39045;DHT22;52192;52.002;5.956;2023-06-19T04:18:29;22.70;65.80
39045;DHT22;52192;52.002;5.956;2023-06-19T04:20:54;22.60;65.50
39045;DHT22;52192;52.002;5.956;2023-06-19T04:23:20;22.70;65.60
39045;DHT22;52192;52.002;5.956;2023-06-19T04:25:46;22.70;65.60
39045;DHT22;52192;52.002;5.956;2023-06-19T04:28:11;22.70;66.00
39045;DHT22;52192;52.002;5.956;2023-06-19T04:30:37;22.60;66.50
39045;DHT22;52192;52.002;5.956;2023-06-19T04:33:04;22.60;66.50
39045;DHT22;52192;52.002;5.956;2023-06-19T04:35:31;22.60;66.60
39045;DHT22;52192;52.002;5.956;2023-06-19T04:37:57;22.60;66.60
39045;DHT22;52192;52.002;5.956;2023-06-19T04:40:26;22.60;66.80
39045;DHT22;52192;52.002;5.956;2023-06-19T04:42:52;22.60;66.80
39045;DHT22;52192;52.002;5.956;2023-06-19T04:45:19;22.60;67.10
39045;DHT22;52192;52.002;5.956;2023-06-19T04:47:45;22.60;66.90
39045;DHT22;52192;52.002;5.956;2023-06-19T04:50:11;22.60;68.00
39045;DHT22;52192;52.002;5.956;2023-06-19T04:52:37;22.60;67.30
39045;DHT22;52192;52.002;5.956;2023-06-19T04:55:05;22.60;67.60
39045;DHT22;52192;52.002;5.956;2023-06-19T04:57:31;22.50;67.50
39045;DHT22;52192;52.002;5.956;2023-06-19T04:59:57;22.50;67.90
39045;DHT22;52192;52.002;5.956;2023-06-19T05:02:23;22.50;68.30
39045;DHT22;52192;52.002;5.956;2023-06-19T05:04:49;22.50;68.20
39045;DHT22;52192;52.002;5.956;2023-06-19T05:07:15;22.40;69.00
39045;DHT22;52192;52.002;5.956;2023-06-19T05:09:43;22.40;69.00
39045;DHT22;52192;52.002;5.956;2023-06-19T05:12:09;22.50;69.10
39045;DHT22;52192;52.002;5.956;2023-06-19T05:14:35;22.50;69.10
39045;DHT22;52192;52.002;5.956;2023-06-19T05:17:01;22.40;69.30
39045;DHT22;52192;52.002;5.956;2023-06-19T05:19:26;22.40;69.80
39045;DHT22;52192;52.002;5.956;2023-06-19T05:21:52;22.40;69.70
39045;DHT22;52192;52.002;5.956;2023-06-19T05:24:18;22.40;69.80
39045;DHT22;52192;52.002;5.956;2023-06-19T05:26:43;22.40;69.70
39045;DHT22;52192;52.002;5.956;2023-06-19T05:29:09;22.40;69.70
39045;DHT22;52192;52.002;5.956;2023-06-19T05:31:36;22.40;69.90
39045;DHT22;52192;52.002;5.956;2023-06-19T05:34:02;22.40;70.60
39045;DHT22;52192;52.002;5.956;2023-06-19T05:36:27;22.40;70.30
39045;DHT22;52192;52.002;5.956;2023-06-19T05:38:53;22.30;70.30
39045;DHT22;52192;52.002;5.956;2023-06-19T05:41:19;22.30;70.70
39045;DHT22;52192;52.002;5.956;2023-06-19T05:43:44;22.30;70.80
39045;DHT22;52192;52.002;5.956;2023-06-19T05:46:10;22.30;70.50
39045;DHT22;52192;52.002;5.956;2023-06-19T05:48:37;22.40;70.40
39045;DHT22;52192;52.002;5.956;2023-06-19T05:51:02;22.50;70.30
39045;DHT22;52192;52.002;5.956;2023-06-19T05:53:28;22.50;70.30
39045;DHT22;52192;52.002;5.956;2023-06-19T05:55:56;22.60;70.20
39045;DHT22;52192;52.002;5.956;2023-06-19T05:58:22;22.70;69.90
39045;DHT22;52192;52.002;5.956;2023-06-19T06:00:49;22.80;69.60
39045;DHT22;52192;52.002;5.956;2023-06-19T06:03:15;22.80;69.40
39045;DHT22;52192;52.002;5.956;2023-06-19T06:05:40;22.90;69.30
39045;DHT22;52192;52.002;5.956;2023-06-19T06:08:06;23.00;69.20
39045;DHT22;52192;52.002;5.956;2023-06-19T06:10:33;23.00;69.20
39045;DHT22;52192;52.002;5.956;2023-06-19T06:12:58;23.00;69.20
39045;DHT22;52192;52.002;5.956;2023-06-19T06:15:24;23.00;69.10
39045;DHT22;52192;52.002;5.956;2023-06-19T06:17:50;23.00;68.90
39045;DHT22;52192;52.002;5.956;2023-06-19T06:20:15;23.00;68.90
39045;DHT22;52192;52.002;5.956;2023-06-19T06:22:42;23.00;69.10
39045;DHT22;52192;52.002;5.956;2023-06-19T06:25:09;23.00;69.30
39045;DHT22;52192;52.002;5.956;2023-06-19T06:27:37;22.90;69.40
39045;DHT22;52192;52.002;5.956;2023-06-19T06:30:03;22.80;69.40
39045;DHT22;52192;52.002;5.956;2023-06-19T06:32:29;22.80;69.40
39045;DHT22;52192;52.002;5.956;2023-06-19T06:34:57;22.80;69.70
39045;DHT22;52192;52.002;5.956;2023-06-19T06:37:22;22.80;69.90
39045;DHT22;52192;52.002;5.956;2023-06-19T06:39:51;22.70;70.00
39045;DHT22;52192;52.002;5.956;2023-06-19T06:42:18;22.70;70.10
39045;DHT22;52192;52.002;5.956;2023-06-19T06:44:44;22.70;70.40
39045;DHT22;52192;52.002;5.956;2023-06-19T06:47:11;22.60;70.40
39045;DHT22;52192;52.002;5.956;2023-06-19T06:49:36;22.60;70.40
39045;DHT22;52192;52.002;5.956;2023-06-19T06:52:06;22.60;70.80
39045;DHT22;52192;52.002;5.956;2023-06-19T06:54:32;22.50;71.30
39045;DHT22;52192;52.002;5.956;2023-06-19T06:56:58;22.50;71.20
39045;DHT22;52192;52.002;5.956;2023-06-19T06:59:26;22.40;71.30
39045;DHT22;52192;52.002;5.956;2023-06-19T07:01:53;22.50;71.40
39045;DHT22;52192;52.002;5.956;2023-06-19T07:04:19;22.40;71.70
39045;DHT22;52192;52.002;5.956;2023-06-19T07:06:45;22.40;71.60
39045;DHT22;52192;52.002;5.956;2023-06-19T07:09:11;22.50;71.40
39045;DHT22;52192;52.002;5.956;2023-06-19T07:11:37;22.50;71.10
39045;DHT22;52192;52.002;5.956;2023-06-19T07:14:02;22.50;71.10
39045;DHT22;52192;52.002;5.956;2023-06-19T07:16:28;22.50;71.10
39045;DHT22;52192;52.002;5.956;2023-06-19T07:18:54;22.50;70.90
39045;DHT22;52192;52.002;5.956;2023-06-19T07:21:20;22.50;70.20
39045;DHT22;52192;52.002;5.956;2023-06-19T07:23:46;22.50;70.10
39045;DHT22;52192;52.002;5.956;2023-06-19T07:26:13;22.50;69.90
39045;DHT22;52192;52.002;5.956;2023-06-19T07:28:40;22.60;69.50
39045;DHT22;52192;52.002;5.956;2023-06-19T07:31:05;22.60;69.30
39045;DHT22;52192;52.002;5.956;2023-06-19T07:33:31;22.70;69.10
39045;DHT22;52192;52.002;5.956;2023-06-19T07:35:57;22.90;68.30
39045;DHT22;52192;52.002;5.956;2023-06-19T07:38:23;22.90;67.80
39045;DHT22;52192;52.002;5.956;2023-06-19T07:40:49;23.10;66.90
39045;DHT22;52192;52.002;5.956;2023-06-19T07:43:15;23.20;66.00
39045;DHT22;52192;52.002;5.956;2023-06-19T07:45:40;23.30;65.50
39045;DHT22;52192;52.002;5.956;2023-06-19T07:48:06;23.50;65.10
39045;DHT22;52192;52.002;5.956;2023-06-19T07:50:32;23.70;64.20
39045;DHT22;52192;52.002;5.956;2023-06-19T07:52:58;23.80;62.80
39045;DHT22;52192;52.002;5.956;2023-06-19T07:55:23;23.80;62.60
39045;DHT22;52192;52.002;5.956;2023-06-19T07:57:49;23.90;62.80
39045;DHT22;52192;52.002;5.956;2023-06-19T08:00:15;23.90;62.10
39045;DHT22;52192;52.002;5.956;2023-06-19T08:02:41;24.00;61.90
39045;DHT22;52192;52.002;5.956;2023-06-19T08:05:08;24.00;61.80
39045;DHT22;52192;52.002;5.956;2023-06-19T08:07:34;24.00;61.60
39045;DHT22;52192;52.002;5.956;2023-06-19T08:10:00;24.10;61.50
39045;DHT22;52192;52.002;5.956;2023-06-19T08:12:26;24.10;61.40
39045;DHT22;52192;52.002;5.956;2023-06-19T08:14:51;24.10;61.20
39045;DHT22;52192;52.002;5.956;2023-06-19T08:17:17;24.20;60.00
39045;DHT22;52192;52.002;5.956;2023-06-19T08:19:43;24.20;59.90
39045;DHT22;52192;52.002;5.956;2023-06-19T08:22:09;24.20;60.60
39045;DHT22;52192;52.002;5.956;2023-06-19T08:24:36;24.00;60.10
39045;DHT22;52192;52.002;5.956;2023-06-19T08:27:02;23.90;60.30
39045;DHT22;52192;52.002;5.956;2023-06-19T08:29:28;23.70;60.80
39045;DHT22;52192;52.002;5.956;2023-06-19T08:31:53;23.80;60.80
39045;DHT22;52192;52.002;5.956;2023-06-19T08:34:19;24.10;60.10
39045;DHT22;52192;52.002;5.956;2023-06-19T08:36:45;24.20;59.70
39045;DHT22;52192;52.002;5.956;2023-06-19T08:39:11;24.30;59.50
39045;DHT22;52192;52.002;5.956;2023-06-19T08:41:37;24.40;59.30
39045;DHT22;52192;52.002;5.956;2023-06-19T08:44:07;24.40;59.30
39045;DHT22;52192;52.002;5.956;2023-06-19T08:46:33;24.40;59.10
39045;DHT22;52192;52.002;5.956;2023-06-19T08:48:59;24.50;59.10
39045;DHT22;52192;52.002;5.956;2023-06-19T08:51:27;24.60;58.60
39045;DHT22;52192;52.002;5.956;2023-06-19T08:54:02;24.70;58.40
39045;DHT22;52192;52.002;5.956;2023-06-19T08:56:32;24.80;58.30
39045;DHT22;52192;52.002;5.956;2023-06-19T08:59:16;24.90;58.20
39045;DHT22;52192;52.002;5.956;2023-06-19T09:01:50;25.00;58.10
39045;DHT22;52192;52.002;5.956;2023-06-19T09:04:19;25.00;57.80
39045;DHT22;52192;52.002;5.956;2023-06-19T09:09:16;25.10;58.00
39045;DHT22;52192;52.002;5.956;2023-06-19T09:11:41;25.10;58.00
39045;DHT22;52192;52.002;5.956;2023-06-19T09:14:11;25.00;57.70
39045;DHT22;52192;52.002;5.956;2023-06-19T09:16:41;24.90;58.00
39045;DHT22;52192;52.002;5.956;2023-06-19T09:19:07;24.80;58.30
39045;DHT22;52192;52.002;5.956;2023-06-19T09:21:36;24.70;58.80
39045;DHT22;52192;52.002;5.956;2023-06-19T09:24:06;24.70;58.80
39045;DHT22;52192;52.002;5.956;2023-06-19T09:26:33;24.70;58.80
39045;DHT22;52192;52.002;5.956;2023-06-19T09:29:13;24.60;58.90
39045;DHT22;52192;52.002;5.956;2023-06-19T09:31:39;24.60;59.20
39045;DHT22;52192;52.002;5.956;2023-06-19T09:34:07;24.70;59.00
39045;DHT22;52192;52.002;5.956;2023-06-19T09:36:33;24.80;58.80
39045;DHT22;52192;52.002;5.956;2023-06-19T09:39:02;25.00;58.60
39045;DHT22;52192;52.002;5.956;2023-06-19T09:41:29;25.20;58.30
39045;DHT22;52192;52.002;5.956;2023-06-19T09:43:55;25.40;58.00
39045;DHT22;52192;52.002;5.956;2023-06-19T09:46:30;25.60;57.50
39045;DHT22;52192;52.002;5.956;2023-06-19T09:49:01;25.70;57.00
39045;DHT22;52192;52.002;5.956;2023-06-19T09:51:37;25.90;56.40
39045;DHT22;52192;52.002;5.956;2023-06-19T09:54:05;25.80;55.80
39045;DHT22;52192;52.002;5.956;2023-06-19T09:56:32;25.70;56.40
39045;DHT22;52192;52.002;5.956;2023-06-19T09:59:00;25.80;57.20
39045;DHT22;52192;52.002;5.956;2023-06-19T10:01:31;26.00;56.50
39045;DHT22;52192;52.002;5.956;2023-06-19T10:04:06;26.20;55.50
39045;DHT22;52192;52.002;5.956;2023-06-19T10:06:32;26.40;55.30
39045;DHT22;52192;52.002;5.956;2023-06-19T10:09:09;26.40;55.70
39045;DHT22;52192;52.002;5.956;2023-06-19T10:11:49;26.60;55.10
39045;DHT22;52192;52.002;5.956;2023-06-19T10:14:17;26.90;54.40
39045;DHT22;52192;52.002;5.956;2023-06-19T10:16:44;26.90;54.20
39045;DHT22;52192;52.002;5.956;2023-06-19T10:19:17;26.90;54.40
39045;DHT22;52192;52.002;5.956;2023-06-19T10:21:48;27.00;53.20
39045;DHT22;52192;52.002;5.956;2023-06-19T10:24:16;27.00;53.20
39045;DHT22;52192;52.002;5.956;2023-06-19T10:26:44;27.00;53.50
39045;DHT22;52192;52.002;5.956;2023-06-19T10:29:18;27.10;53.10
39045;DHT22;52192;52.002;5.956;2023-06-19T10:31:44;27.00;52.90
39045;DHT22;52192;52.002;5.956;2023-06-19T10:34:10;27.10;52.80
39045;DHT22;52192;52.002;5.956;2023-06-19T10:36:37;27.20;52.50
39045;DHT22;52192;52.002;5.956;2023-06-19T10:39:03;27.10;52.70
39045;DHT22;52192;52.002;5.956;2023-06-19T10:41:29;27.00;52.40
39045;DHT22;52192;52.002;5.956;2023-06-19T10:44:05;26.90;52.80
39045;DHT22;52192;52.002;5.956;2023-06-19T10:46:35;27.00;53.10
39045;DHT22;52192;52.002;5.956;2023-06-19T10:49:02;27.20;53.10
39045;DHT22;52192;52.002;5.956;2023-06-19T10:51:40;27.40;52.00
39045;DHT22;52192;52.002;5.956;2023-06-19T10:54:06;27.40;51.90
39045;DHT22;52192;52.002;5.956;2023-06-19T10:56:33;27.40;51.50
39045;DHT22;52192;52.002;5.956;2023-06-19T10:59:04;27.30;51.80
39045;DHT22;52192;52.002;5.956;2023-06-19T11:01:36;27.50;52.00
39045;DHT22;52192;52.002;5.956;2023-06-19T11:04:09;27.70;51.50
39045;DHT22;52192;52.002;5.956;2023-06-19T11:06:36;27.80;51.40
39045;DHT22;52192;52.002;5.956;2023-06-19T11:09:12;27.90;50.90
39045;DHT22;52192;52.002;5.956;2023-06-19T11:11:43;28.00;50.70
39045;DHT22;52192;52.002;5.956;2023-06-19T11:14:09;28.10;50.90
39045;DHT22;52192;52.002;5.956;2023-06-19T11:16:38;28.20;50.60
39045;DHT22;52192;52.002;5.956;2023-06-19T11:19:07;28.40;50.10
39045;DHT22;52192;52.002;5.956;2023-06-19T11:21:35;28.50;50.10
39045;DHT22;52192;52.002;5.956;2023-06-19T11:24:11;28.60;50.10
39045;DHT22;52192;52.002;5.956;2023-06-19T11:26:41;28.70;49.30
39045;DHT22;52192;52.002;5.956;2023-06-19T11:29:20;28.70;49.10
39045;DHT22;52192;52.002;5.956;2023-06-19T11:31:46;28.80;48.80
39045;DHT22;52192;52.002;5.956;2023-06-19T11:34:13;28.80;48.50
39045;DHT22;52192;52.002;5.956;2023-06-19T11:36:40;28.70;47.90
39045;DHT22;52192;52.002;5.956;2023-06-19T11:39:13;28.60;47.80
39045;DHT22;52192;52.002;5.956;2023-06-19T11:41:40;28.60;48.30
39045;DHT22;52192;52.002;5.956;2023-06-19T11:44:07;28.70;48.70
39045;DHT22;52192;52.002;5.956;2023-06-19T11:46:37;28.90;48.10
39045;DHT22;52192;52.002;5.956;2023-06-19T11:49:13;28.90;47.80
39045;DHT22;52192;52.002;5.956;2023-06-19T11:51:39;28.90;47.10
39045;DHT22;52192;52.002;5.956;2023-06-19T11:54:07;29.00;47.50
39045;DHT22;52192;52.002;5.956;2023-06-19T11:56:37;29.20;47.50
39045;DHT22;52192;52.002;5.956;2023-06-19T11:59:04;29.40;46.80
39045;DHT22;52192;52.002;5.956;2023-06-19T12:01:31;29.50;46.50
39045;DHT22;52192;52.002;5.956;2023-06-19T12:03:57;29.60;46.00
39045;DHT22;52192;52.002;5.956;2023-06-19T12:06:23;29.50;44.90
39045;DHT22;52192;52.002;5.956;2023-06-19T12:08:49;29.30;45.00
39045;DHT22;52192;52.002;5.956;2023-06-19T12:11:14;29.10;45.00
39045;DHT22;52192;52.002;5.956;2023-06-19T12:13:40;29.00;45.70
39045;DHT22;52192;52.002;5.956;2023-06-19T12:16:07;29.10;45.20
39045;DHT22;52192;52.002;5.956;2023-06-19T12:18:33;29.10;44.90
39045;DHT22;52192;52.002;5.956;2023-06-19T12:20:59;29.10;44.90
39045;DHT22;52192;52.002;5.956;2023-06-19T12:23:25;29.30;45.00
39045;DHT22;52192;52.002;5.956;2023-06-19T12:25:51;29.50;44.70
39045;DHT22;52192;52.002;5.956;2023-06-19T12:28:16;29.70;44.10
39045;DHT22;52192;52.002;5.956;2023-06-19T12:30:44;29.80;43.50
39045;DHT22;52192;52.002;5.956;2023-06-19T12:33:11;29.90;42.90
39045;DHT22;52192;52.002;5.956;2023-06-19T12:35:40;30.20;43.00
39045;DHT22;52192;52.002;5.956;2023-06-19T12:38:09;30.30;42.10
39045;DHT22;52192;52.002;5.956;2023-06-19T12:40:36;30.20;41.60
39045;DHT22;52192;52.002;5.956;2023-06-19T12:43:02;30.20;41.60
39045;DHT22;52192;52.002;5.956;2023-06-19T12:45:28;30.20;41.70
39045;DHT22;52192;52.002;5.956;2023-06-19T12:47:53;30.30;41.50
39045;DHT22;52192;52.002;5.956;2023-06-19T12:50:19;30.30;41.60
39045;DHT22;52192;52.002;5.956;2023-06-19T12:52:45;30.20;41.90
39045;DHT22;52192;52.002;5.956;2023-06-19T12:55:10;30.30;41.90
39045;DHT22;52192;52.002;5.956;2023-06-19T12:57:36;30.40;41.90
39045;DHT22;52192;52.002;5.956;2023-06-19T13:00:03;30.50;42.00
39045;DHT22;52192;52.002;5.956;2023-06-19T13:02:31;30.70;42.00
39045;DHT22;52192;52.002;5.956;2023-06-19T13:04:57;30.90;40.90
39045;DHT22;52192;52.002;5.956;2023-06-19T13:07:23;30.90;39.90
39045;DHT22;52192;52.002;5.956;2023-06-19T13:09:49;30.70;40.70
39045;DHT22;52192;52.002;5.956;2023-06-19T13:12:15;30.60;40.80
39045;DHT22;52192;52.002;5.956;2023-06-19T13:14:40;30.70;40.20
39045;DHT22;52192;52.002;5.956;2023-06-19T13:17:07;30.70;40.10
39045;DHT22;52192;52.002;5.956;2023-06-19T13:19:33;30.60;40.00
39045;DHT22;52192;52.002;5.956;2023-06-19T13:21:59;30.60;40.50
39045;DHT22;52192;52.002;5.956;2023-06-19T13:24:24;30.70;40.60
39045;DHT22;52192;52.002;5.956;2023-06-19T13:26:53;30.90;40.20
39045;DHT22;52192;52.002;5.956;2023-06-19T13:29:19;30.90;40.20
39045;DHT22;52192;52.002;5.956;2023-06-19T13:31:44;31.00;39.40
39045;DHT22;52192;52.002;5.956;2023-06-19T13:34:10;31.10;39.60
39045;DHT22;52192;52.002;5.956;2023-06-19T13:36:36;31.30;39.80
39045;DHT22;52192;52.002;5.956;2023-06-19T13:39:02;31.40;39.50
39045;DHT22;52192;52.002;5.956;2023-06-19T13:41:28;31.40;39.50
39045;DHT22;52192;52.002;5.956;2023-06-19T13:43:56;31.50;39.60
39045;DHT22;52192;52.002;5.956;2023-06-19T13:46:22;31.50;39.60
39045;DHT22;52192;52.002;5.956;2023-06-19T13:48:48;31.60;39.40
39045;DHT22;52192;52.002;5.956;2023-06-19T13:51:17;31.80;39.60
39045;DHT22;52192;52.002;5.956;2023-06-19T13:53:43;31.80;39.30
39045;DHT22;52192;52.002;5.956;2023-06-19T13:56:10;31.70;39.40
39045;DHT22;52192;52.002;5.956;2023-06-19T13:58:35;31.80;39.80
39045;DHT22;52192;52.002;5.956;2023-06-19T14:01:01;32.00;39.50
39045;DHT22;52192;52.002;5.956;2023-06-19T14:03:27;32.00;38.80
39045;DHT22;52192;52.002;5.956;2023-06-19T14:05:52;31.90;39.10
39045;DHT22;52192;52.002;5.956;2023-06-19T14:08:18;31.80;38.80
39045;DHT22;52192;52.002;5.956;2023-06-19T14:10:44;31.80;39.20
39045;DHT22;52192;52.002;5.956;2023-06-19T14:13:09;31.90;39.40
39045;DHT22;52192;52.002;5.956;2023-06-19T14:15:35;32.00;39.40
39045;DHT22;52192;52.002;5.956;2023-06-19T14:18:01;32.30;39.50
39045;DHT22;52192;52.002;5.956;2023-06-19T14:20:27;32.50;38.70
39045;DHT22;52192;52.002;5.956;2023-06-19T14:22:53;32.50;38.30
39045;DHT22;52192;52.002;5.956;2023-06-19T14:25:18;32.60;38.30
39045;DHT22;52192;52.002;5.956;2023-06-19T14:27:44;32.40;38.20
39045;DHT22;52192;52.002;5.956;2023-06-19T14:30:10;32.50;38.60
39045;DHT22;52192;52.002;5.956;2023-06-19T14:32:36;32.50;38.80
39045;DHT22;52192;52.002;5.956;2023-06-19T14:35:03;32.50;38.80
39045;DHT22;52192;52.002;5.956;2023-06-19T14:37:29;32.60;38.80
39045;DHT22;52192;52.002;5.956;2023-06-19T14:39:54;32.60;38.50
39045;DHT22;52192;52.002;5.956;2023-06-19T14:42:20;32.60;38.70
39045;DHT22;52192;52.002;5.956;2023-06-19T14:44:46;32.60;38.90
39045;DHT22;52192;52.002;5.956;2023-06-19T14:47:12;32.70;38.70
39045;DHT22;52192;52.002;5.956;2023-06-19T14:49:37;32.70;38.30
39045;DHT22;52192;52.002;5.956;2023-06-19T14:52:04;32.30;38.40
39045;DHT22;52192;52.002;5.956;2023-06-19T14:54:30;32.30;38.70
39045;DHT22;52192;52.002;5.956;2023-06-19T14:56:55;32.50;38.70
39045;DHT22;52192;52.002;5.956;2023-06-19T14:59:21;32.60;38.50
39045;DHT22;52192;52.002;5.956;2023-06-19T15:01:47;32.60;38.50
39045;DHT22;52192;52.002;5.956;2023-06-19T15:04:13;32.60;38.30
39045;DHT22;52192;52.002;5.956;2023-06-19T15:06:38;32.70;37.90
39045;DHT22;52192;52.002;5.956;2023-06-19T15:09:04;32.50;38.00
39045;DHT22;52192;52.002;5.956;2023-06-19T15:11:30;32.60;38.30
39045;DHT22;52192;52.002;5.956;2023-06-19T15:13:55;32.70;38.60
39045;DHT22;52192;52.002;5.956;2023-06-19T15:16:21;32.80;38.70
39045;DHT22;52192;52.002;5.956;2023-06-19T15:18:48;32.90;38.70
39045;DHT22;52192;52.002;5.956;2023-06-19T15:21:13;32.90;38.10
39045;DHT22;52192;52.002;5.956;2023-06-19T15:23:39;32.80;38.40
39045;DHT22;52192;52.002;5.956;2023-06-19T15:26:05;32.90;38.20
39045;DHT22;52192;52.002;5.956;2023-06-19T15:28:33;33.00;38.30
39045;DHT22;52192;52.002;5.956;2023-06-19T15:30:59;33.20;37.90
39045;DHT22;52192;52.002;5.956;2023-06-19T15:33:25;33.20;37.60
39045;DHT22;52192;52.002;5.956;2023-06-19T15:35:51;33.00;37.60